Ander, Texas
Current Conditions -  °F | °C
As of 12:35 PM on Monday 26 Jan 2015 (Local Time) from KBEA Reporting Station
Clear Clear  
Wind Chill: 68°   Ceiling: Unl
Heat Index: 68°   Visibility: 10mi
Dew Point: 41°   Wind: 5mph
Humidity: 38%   Direction: 260°W
Pressure: 30.27"   Gusts: NA
Location:  28.6563°N, 97.4287°W
Report Text: KBEA 261835Z AUTO 26004KT 10SM CLR 20/05 A3027 RMK AO2 T01980049
Loading
Personal Weather Stations






























Interactive Weather Map New forecast layout! Learn more

10-Day Weather Forecast

Advertisements
Track Severe Weather on mobile